createdAt,value
2022-12-25T00:01:36.132Z,100919.44
2022-12-25T00:04:05.170Z,100931.16
2022-12-25T00:06:32.893Z,100927.75
2022-12-25T00:09:00.494Z,100926.16
2022-12-25T00:11:28.184Z,100922.03
2022-12-25T00:13:55.796Z,100924.94
2022-12-25T00:16:25.334Z,100934.00
2022-12-25T00:18:53.529Z,100930.72
2022-12-25T00:21:23.011Z,100929.13
2022-12-25T00:23:54.811Z,100931.09
2022-12-25T00:26:22.555Z,100928.56
2022-12-25T00:28:53.219Z,100928.75
2022-12-25T00:31:21.486Z,100924.53
2022-12-25T00:33:50.303Z,100925.53
2022-12-25T00:36:22.268Z,100928.28
2022-12-25T00:38:52.156Z,100931.03
2022-12-25T00:41:42.949Z,100924.91
2022-12-25T00:44:13.506Z,100929.13
2022-12-25T00:46:42.240Z,100922.84
2022-12-25T00:49:14.585Z,100920.84
2022-12-25T00:51:42.321Z,100917.06
2022-12-25T00:54:11.968Z,100915.09
2022-12-25T00:56:40.221Z,100913.19
2022-12-25T00:59:08.118Z,100911.31
2022-12-25T01:01:36.142Z,100924.19
2022-12-25T01:04:03.909Z,100913.47
2022-12-25T01:06:31.916Z,100921.72
2022-12-25T01:09:17.232Z,100918.03
2022-12-25T01:11:46.278Z,100921.22
2022-12-25T01:14:13.938Z,100916.72
2022-12-25T01:16:45.188Z,100918.19
2022-12-25T01:19:13.142Z,100912.53
2022-12-25T01:21:41.143Z,100904.31
2022-12-25T01:27:05.248Z,100911.44
2022-12-25T01:29:33.053Z,100911.03
2022-12-25T01:32:01.241Z,100911.69
2022-12-25T01:34:30.801Z,100905.16
2022-12-25T01:36:59.180Z,100906.25
2022-12-25T01:39:26.866Z,100914.63
2022-12-25T01:41:55.906Z,100905.44
2022-12-25T01:45:00.847Z,100909.44
2022-12-25T01:47:32.150Z,100901.09
2022-12-25T01:50:00.556Z,100900.19
2022-12-25T01:52:32.021Z,100906.00
2022-12-25T01:55:04.251Z,100894.16
2022-12-25T01:57:37.211Z,100897.44
2022-12-25T02:00:08.021Z,100903.25
2022-12-25T02:02:38.235Z,100900.28
2022-12-25T02:05:10.983Z,100902.63
2022-12-25T02:08:11.035Z,100903.13
2022-12-25T02:10:39.697Z,100896.69
2022-12-25T02:13:08.767Z,100904.41
2022-12-25T02:15:44.955Z,100897.00
2022-12-25T02:18:21.965Z,100906.38
2022-12-25T02:21:05.060Z,100904.50
2022-12-25T02:23:48.763Z,100904.28
2022-12-25T02:26:26.351Z,100901.50
2022-12-25T02:29:01.714Z,100895.28
2022-12-25T02:31:38.949Z,100894.94
2022-12-25T02:34:14.248Z,100911.56
2022-12-25T02:36:48.732Z,100905.31
2022-12-25T02:39:40.613Z,100913.97
2022-12-25T02:42:12.847Z,100909.09
2022-12-25T02:45:02.776Z,100905.59
2022-12-25T02:47:49.528Z,100904.44
2022-12-25T02:50:36.537Z,100906.97
2022-12-25T02:53:24.024Z,100906.78
2022-12-25T02:56:12.050Z,100909.28
2022-12-25T02:58:59.912Z,100913.50
2022-12-25T03:01:51.287Z,100905.47
2022-12-25T03:04:41.381Z,100908.00
2022-12-25T03:07:13.537Z,100906.94
2022-12-25T03:10:06.033Z,100901.44
2022-12-25T03:13:05.159Z,100913.69
2022-12-25T03:15:53.204Z,100910.94
2022-12-25T03:18:26.692Z,100912.53
2022-12-25T03:21:12.676Z,100912.41
2022-12-25T03:24:00.031Z,100911.25
2022-12-25T03:26:46.196Z,100909.53
2022-12-25T03:29:35.560Z,100909.53
2022-12-25T03:35:26.861Z,100904.88
2022-12-25T03:38:48.014Z,100906.69
2022-12-25T03:42:04.652Z,100901.38
2022-12-25T03:44:54.566Z,100886.34
2022-12-25T03:47:45.113Z,100884.41
2022-12-25T03:50:37.027Z,100870.25
2022-12-25T03:53:29.006Z,100874.59
2022-12-25T03:56:18.086Z,100868.22
2022-12-25T03:59:10.981Z,100855.22
2022-12-25T04:01:57.121Z,100860.28
2022-12-25T04:04:42.303Z,100848.63
2022-12-25T04:07:29.047Z,100844.19
2022-12-25T04:10:15.128Z,100853.91
2022-12-25T04:13:03.190Z,100849.56
2022-12-25T04:15:48.793Z,100853.06
2022-12-25T04:18:36.143Z,100835.38
2022-12-25T04:21:25.678Z,100832.38
2022-12-25T04:24:14.285Z,100834.94
2022-12-25T04:27:00.065Z,100835.88
2022-12-25T04:29:46.183Z,100838.41
2022-12-25T04:32:30.081Z,100837.34
2022-12-25T04:35:28.231Z,100841.56
2022-12-25T04:37:56.046Z,100854.81
2022-12-25T04:40:25.137Z,100853.09
2022-12-25T04:42:54.531Z,100853.09
2022-12-25T04:45:22.229Z,100858.41
2022-12-25T04:47:50.038Z,100850.25
2022-12-25T04:50:17.790Z,100841.22
2022-12-25T04:52:45.499Z,100849.06
2022-12-25T04:55:13.098Z,100842.69
2022-12-25T04:57:43.041Z,100845.09
2022-12-25T05:00:11.666Z,100848.47
2022-12-25T05:02:39.463Z,100853.66
2022-12-25T05:05:07.710Z,100861.47
2022-12-25T05:07:35.639Z,100862.22
2022-12-25T05:10:03.296Z,100859.31
2022-12-25T05:12:33.448Z,100847.69
2022-12-25T05:15:04.028Z,100843.94
2022-12-25T05:17:32.130Z,100840.31
2022-12-25T05:19:59.681Z,100840.22
2022-12-25T05:22:27.485Z,100841.91
2022-12-25T05:24:55.063Z,100843.59
2022-12-25T05:27:22.708Z,100853.22
2022-12-25T05:29:50.590Z,100840.69
2022-12-25T05:32:19.630Z,100836.25
2022-12-25T05:34:48.168Z,100841.44
2022-12-25T05:37:15.754Z,100842.28
2022-12-25T05:39:43.424Z,100838.66
2022-12-25T05:42:11.449Z,100835.06
2022-12-25T05:44:41.039Z,100836.63
2022-12-25T05:47:08.640Z,100833.03
2022-12-25T05:49:38.063Z,100832.28
2022-12-25T05:52:07.713Z,100826.03
2022-12-25T05:54:59.849Z,100824.09
2022-12-25T05:57:29.553Z,100822.31
2022-12-25T05:59:57.466Z,100823.16
2022-12-25T06:02:26.358Z,100816.03
2022-12-25T06:04:55.455Z,100815.06
2022-12-25T06:07:23.104Z,100815.06
2022-12-25T06:09:50.724Z,100813.25
2022-12-25T06:12:18.351Z,100811.47
2022-12-25T06:14:47.561Z,100812.41
2022-12-25T06:17:15.214Z,100815.06
2022-12-25T06:19:43.148Z,100823.84
2022-12-25T06:22:12.104Z,100814.34
2022-12-25T06:24:42.135Z,100808.22
2022-12-25T06:27:09.735Z,100811.84
2022-12-25T06:29:37.581Z,100802.19
2022-12-25T06:32:05.931Z,100804.00
2022-12-25T06:34:35.026Z,100798.81
2022-12-25T06:37:07.485Z,100796.41
2022-12-25T06:39:41.785Z,100800.88
2022-12-25T06:42:10.160Z,100790.63
2022-12-25T06:44:39.360Z,100785.53
2022-12-25T06:47:07.081Z,100787.47
2022-12-25T06:49:35.048Z,100781.56
2022-12-25T06:52:04.173Z,100787.81
2022-12-25T06:54:32.194Z,100784.44
2022-12-25T06:57:01.183Z,100779.38
2022-12-25T06:59:34.031Z,100773.50
2022-12-25T07:02:27.335Z,100757.81
2022-12-25T07:04:57.021Z,100751.09
2022-12-25T07:07:24.675Z,100735.56
2022-12-25T07:09:52.611Z,100732.41
2022-12-25T07:12:24.241Z,100724.81
2022-12-25T07:14:55.577Z,100748.88
2022-12-25T07:17:25.055Z,100751.75
2022-12-25T07:19:52.638Z,100763.19
2022-12-25T07:22:20.405Z,100773.88
2022-12-25T07:24:48.172Z,100765.94
2022-12-25T07:27:19.033Z,100747.41
2022-12-25T07:29:49.051Z,100744.06
2022-12-25T07:32:18.121Z,100740.56
2022-12-25T07:34:45.800Z,100746.69
2022-12-25T07:37:14.151Z,100735.03
2022-12-25T07:40:08.056Z,100732.16
2022-12-25T07:45:31.927Z,100716.28
2022-12-25T07:48:05.178Z,100711.91
2022-12-25T07:50:34.043Z,100717.00
2022-12-25T07:53:01.784Z,100719.00
2022-12-25T07:55:29.551Z,100729.59
2022-12-25T08:00:50.888Z,100733.94
2022-12-25T08:03:19.682Z,100732.03
2022-12-25T08:05:47.553Z,100739.00
2022-12-25T08:08:15.200Z,100737.91
2022-12-25T08:10:47.407Z,100732.63
2022-12-25T08:13:15.781Z,100733.59
2022-12-25T08:15:43.383Z,100735.28
2022-12-25T08:18:12.461Z,100743.34
2022-12-25T08:20:40.159Z,100743.34
2022-12-25T08:23:07.813Z,100737.44
2022-12-25T08:25:36.013Z,100734.81
2022-12-25T08:28:04.799Z,100727.34
2022-12-25T08:30:32.438Z,100713.28
2022-12-25T08:33:00.731Z,100710.41
2022-12-25T08:35:30.718Z,100716.41
2022-12-25T08:37:58.660Z,100717.13
2022-12-25T08:40:26.379Z,100722.22
2022-12-25T08:42:56.770Z,100730.88
2022-12-25T08:45:31.180Z,100732.44
2022-12-25T08:48:02.323Z,100726.06
2022-12-25T08:50:32.051Z,100727.75
2022-12-25T08:53:01.131Z,100737.41
2022-12-25T08:55:29.448Z,100734.75
2022-12-25T08:57:57.603Z,100733.66
2022-12-25T09:00:25.207Z,100744.13
2022-12-25T09:02:53.125Z,100749.69
2022-12-25T09:05:20.794Z,100748.84
2022-12-25T09:07:50.066Z,100748.84
2022-12-25T09:10:18.075Z,100744.47
2022-12-25T09:12:45.672Z,100744.47
2022-12-25T09:15:14.058Z,100733.88
2022-12-25T09:17:42.125Z,100725.00
2022-12-25T09:20:10.029Z,100720.53
2022-12-25T09:22:39.145Z,100702.97
2022-12-25T09:25:08.848Z,100701.63
2022-12-25T09:27:36.527Z,100695.25
2022-12-25T09:30:05.058Z,100694.28
2022-12-25T09:32:32.676Z,100698.88
2022-12-25T09:35:00.355Z,100693.56
2022-12-25T09:37:28.865Z,100698.75
2022-12-25T09:39:56.471Z,100686.13
2022-12-25T09:42:28.567Z,100695.00
2022-12-25T09:45:00.178Z,100699.59
2022-12-25T09:47:38.254Z,100702.94
2022-12-25T09:50:12.442Z,100703.69
2022-12-25T09:52:47.433Z,100699.94
2022-12-25T09:55:20.468Z,100705.84
2022-12-25T09:57:55.061Z,100699.47
2022-12-25T10:00:25.012Z,100707.06
2022-12-25T10:03:14.218Z,100709.22
2022-12-25T10:06:23.959Z,100708.13
2022-12-25T10:09:07.361Z,100710.41
2022-12-25T10:11:48.683Z,100705.84
2022-12-25T10:14:30.161Z,100705.47
2022-12-25T10:17:09.324Z,100711.25
2022-12-25T10:19:48.160Z,100716.44
2022-12-25T10:22:20.937Z,100717.03
2022-12-25T10:24:53.142Z,100714.13
2022-12-25T10:27:30.708Z,100704.72
2022-12-25T10:30:02.089Z,100708.22
2022-12-25T10:32:31.464Z,100694.00
2022-12-25T10:35:00.045Z,100696.97
2022-12-25T10:37:27.683Z,100686.72
2022-12-25T10:39:57.239Z,100673.09
2022-12-25T10:42:33.192Z,100668.09
2022-12-25T10:45:05.027Z,100656.91
2022-12-25T10:47:33.795Z,100654.00
2022-12-25T10:50:08.593Z,100646.19
2022-12-25T10:52:55.154Z,100640.03
2022-12-25T10:55:28.489Z,100637.13
2022-12-25T10:57:58.023Z,100631.56
2022-12-25T11:00:30.062Z,100635.75
2022-12-25T11:03:00.601Z,100652.50
2022-12-25T11:05:32.072Z,100654.94
2022-12-25T11:08:03.157Z,100648.50
2022-12-25T11:10:35.857Z,100641.84
2022-12-25T11:13:06.497Z,100651.34
2022-12-25T11:15:42.202Z,100647.03
2022-12-25T11:18:23.189Z,100626.53
2022-12-25T11:20:57.969Z,100628.34
2022-12-25T11:23:29.164Z,100631.41
2022-12-25T11:25:59.094Z,100626.38
2022-12-25T11:28:28.582Z,100614.78
2022-12-25T11:31:02.620Z,100611.91
2022-12-25T11:33:33.835Z,100605.63
2022-12-25T11:36:10.069Z,100592.91
2022-12-25T11:38:39.105Z,100584.84
2022-12-25T11:41:08.129Z,100595.31
2022-12-25T11:46:41.203Z,100561.25
2022-12-25T11:49:23.153Z,100562.94
2022-12-25T11:51:57.144Z,100552.16
2022-12-25T11:54:29.153Z,100551.09
2022-12-25T11:57:00.581Z,100545.78
2022-12-25T11:59:37.028Z,100544.50
2022-12-25T12:02:21.365Z,100543.53
2022-12-25T12:04:56.543Z,100541.59
2022-12-25T12:07:27.674Z,100546.91
2022-12-25T12:10:03.739Z,100540.63
2022-12-25T12:12:46.664Z,100527.22
2022-12-25T12:15:27.403Z,100536.00
2022-12-25T12:18:07.996Z,100521.91
2022-12-25T12:20:37.432Z,100514.66
2022-12-25T12:23:14.533Z,100511.88
2022-12-25T12:25:43.731Z,100517.19
2022-12-25T12:28:21.562Z,100508.22
2022-12-25T12:30:59.346Z,100494.94
2022-12-25T12:33:33.158Z,100492.31
2022-12-25T12:36:03.772Z,100480.69
2022-12-25T12:38:34.118Z,100471.06
2022-12-25T12:41:03.685Z,100458.63
2022-12-25T12:43:37.255Z,100455.97
2022-12-25T12:46:15.799Z,100444.50
2022-12-25T12:48:47.348Z,100439.19
2022-12-25T12:51:29.260Z,100450.50
2022-12-25T12:54:14.339Z,100450.50
2022-12-25T12:56:42.027Z,100443.53
2022-12-25T12:59:12.221Z,100452.31
2022-12-25T13:01:49.058Z,100454.00
2022-12-25T13:04:29.965Z,100442.53
2022-12-25T13:07:06.611Z,100444.34
2022-12-25T13:09:50.851Z,100431.09
2022-12-25T13:12:20.345Z,100428.56
2022-12-25T13:14:49.745Z,100432.22
2022-12-25T13:17:23.170Z,100428.56
2022-12-25T13:19:56.222Z,100427.72
2022-12-25T13:22:25.847Z,100421.44
2022-12-25T13:24:58.372Z,100425.09
2022-12-25T13:27:30.050Z,100416.28
2022-12-25T13:29:58.566Z,100414.47
2022-12-25T13:32:30.187Z,100409.16
2022-12-25T13:35:00.432Z,100416.97
2022-12-25T13:37:30.860Z,100410.81
2022-12-25T13:40:02.069Z,100408.31
2022-12-25T13:42:32.133Z,100409.16
2022-12-25T13:45:06.047Z,100398.53
2022-12-25T13:47:36.083Z,100395.88
2022-12-25T13:50:17.170Z,100384.41
2022-12-25T13:52:44.892Z,100384.41
2022-12-25T13:55:14.655Z,100394.19
2022-12-25T13:57:45.403Z,100394.19
2022-12-25T14:00:19.454Z,100394.19
2022-12-25T14:02:47.965Z,100398.69
2022-12-25T14:05:32.328Z,100394.31
2022-12-25T14:08:15.594Z,100393.38
2022-12-25T14:10:46.903Z,100387.34
2022-12-25T14:13:16.500Z,100378.53
2022-12-25T14:15:47.811Z,100376.03
2022-12-25T14:18:16.723Z,100374.34
2022-12-25T14:20:59.522Z,100371.69
2022-12-25T14:23:28.153Z,100376.16
2022-12-25T14:25:55.840Z,100365.66
2022-12-25T14:28:32.251Z,100370.97
2022-12-25T14:31:01.205Z,100369.19
2022-12-25T14:33:33.810Z,100366.63
2022-12-25T14:36:03.046Z,100358.56
2022-12-25T14:38:34.852Z,100361.22
2022-12-25T14:41:04.503Z,100359.41
2022-12-25T14:43:34.461Z,100356.75
2022-12-25T14:46:06.180Z,100352.38
2022-12-25T14:48:34.528Z,100354.19
2022-12-25T14:51:06.229Z,100347.22
2022-12-25T14:53:37.522Z,100354.19
2022-12-25T14:56:07.675Z,100347.22
2022-12-25T14:58:41.460Z,100342.91
2022-12-25T15:01:21.827Z,100347.22
2022-12-25T15:03:49.867Z,100349.03
2022-12-25T15:06:23.171Z,100349.03
2022-12-25T15:08:58.674Z,100344.56
2022-12-25T15:11:26.817Z,100334.09
2022-12-25T15:13:54.689Z,100334.09
2022-12-25T15:16:24.222Z,100336.75
2022-12-25T15:18:52.680Z,100339.41
2022-12-25T15:21:28.066Z,100323.31
2022-12-25T15:23:56.870Z,100308.38
2022-12-25T15:26:25.183Z,100311.03
2022-12-25T15:28:53.184Z,100321.66
2022-12-25T15:31:25.208Z,100322.50
2022-12-25T15:33:55.234Z,100321.94
2022-12-25T15:36:25.283Z,100313.25
2022-12-25T15:38:54.831Z,100323.03
2022-12-25T15:41:42.721Z,100325.69
2022-12-25T15:44:13.150Z,100321.38
2022-12-25T15:46:41.998Z,100321.38
2022-12-25T15:49:10.365Z,100317.03
2022-12-25T15:51:39.964Z,100323.19
2022-12-25T15:54:09.067Z,100312.72
2022-12-25T15:56:43.316Z,100310.91
2022-12-25T15:59:13.084Z,100303.78
2022-12-25T16:01:48.626Z,100305.59
2022-12-25T16:04:16.452Z,100295.81
2022-12-25T16:06:45.579Z,100290.50
2022-12-25T16:09:14.427Z,100291.50
2022-12-25T16:11:42.468Z,100281.00
2022-12-25T16:14:11.188Z,100267.03
2022-12-25T16:16:40.160Z,100280.44
2022-12-25T16:19:08.692Z,100286.84
2022-12-25T16:21:41.075Z,100289.38
2022-12-25T16:24:10.431Z,100288.53
2022-12-25T16:26:38.086Z,100287.84
2022-12-25T16:29:07.521Z,100286.84
2022-12-25T16:31:36.332Z,100285.31
2022-12-25T16:34:04.528Z,100279.03
2022-12-25T16:36:34.722Z,100286.16
2022-12-25T16:39:03.954Z,100270.38
2022-12-25T16:41:33.194Z,100281.69
2022-12-25T16:44:08.890Z,100271.22
2022-12-25T16:46:38.533Z,100275.69
2022-12-25T16:49:09.677Z,100283.50
2022-12-25T16:51:37.328Z,100273.88
2022-12-25T16:54:05.354Z,100275.53
2022-12-25T16:56:36.384Z,100279.19
2022-12-25T16:59:04.037Z,100275.53
2022-12-25T17:01:32.722Z,100265.75
2022-12-25T17:04:02.191Z,100256.13
2022-12-25T17:06:32.288Z,100249.00
2022-12-25T17:09:02.216Z,100251.66
2022-12-25T17:11:30.614Z,100265.75
2022-12-25T17:14:02.523Z,100247.34
2022-12-25T17:16:31.980Z,100250.81
2022-12-25T17:19:02.052Z,100242.19
2022-12-25T17:21:33.081Z,100246.63
2022-12-25T17:24:03.643Z,100245.78
2022-12-25T17:26:32.415Z,100241.31
2022-12-25T17:29:01.612Z,100245.78
2022-12-25T17:31:29.880Z,100237.13
2022-12-25T17:33:57.628Z,100231.81
2022-12-25T17:36:26.027Z,100234.31
2022-12-25T17:38:53.753Z,100233.50
2022-12-25T17:41:23.082Z,100223.72
2022-12-25T17:43:51.171Z,100232.50
2022-12-25T17:46:24.344Z,100235.16
2022-12-25T17:48:52.963Z,100231.81
2022-12-25T17:51:22.826Z,100229.31
2022-12-25T17:53:53.100Z,100231.13
2022-12-25T17:56:21.742Z,100221.34
2022-12-25T17:58:52.439Z,100224.00
2022-12-25T18:01:22.734Z,100229.31
2022-12-25T18:03:51.457Z,100233.78
2022-12-25T18:06:21.668Z,100235.72
2022-12-25T18:08:50.187Z,100235.59
2022-12-25T18:11:22.114Z,100239.22
2022-12-25T18:13:53.319Z,100248.88
2022-12-25T18:16:24.794Z,100237.41
2022-12-25T18:18:53.299Z,100236.44
2022-12-25T18:21:21.153Z,100239.09
2022-12-25T18:23:50.535Z,100237.28
2022-12-25T18:26:19.881Z,100237.28
2022-12-25T18:28:49.167Z,100232.66
2022-12-25T18:31:18.944Z,100239.78
2022-12-25T18:33:48.461Z,100229.44
2022-12-25T18:36:22.124Z,100225.94
2022-12-25T18:38:50.532Z,100226.78
2022-12-25T18:41:19.768Z,100226.78
2022-12-25T18:43:52.814Z,100231.97
2022-12-25T18:46:24.280Z,100238.13
2022-12-25T18:48:55.453Z,100232.81
2022-12-25T18:51:27.728Z,100227.50
2022-12-25T18:54:01.541Z,100221.22
2022-12-25T18:56:29.247Z,100220.22
2022-12-25T18:58:56.908Z,100220.06
2022-12-25T19:01:26.177Z,100213.81
2022-12-25T19:04:02.056Z,100211.03
2022-12-25T19:06:33.314Z,100216.19
2022-12-25T19:09:09.033Z,100206.13
2022-12-25T19:11:44.027Z,100207.50
2022-12-25T19:14:15.199Z,100200.94
2022-12-25T19:16:44.215Z,100210.00
2022-12-25T19:19:14.723Z,100217.72
2022-12-25T19:21:42.753Z,100209.44
2022-12-25T19:24:12.600Z,100214.50
2022-12-25T19:26:41.090Z,100228.03
2022-12-25T19:29:09.171Z,100218.81
2022-12-25T19:31:38.037Z,100222.84
2022-12-25T19:34:06.626Z,100215.44
2022-12-25T19:36:35.920Z,100213.34
2022-12-25T19:39:03.962Z,100217.38
2022-12-25T19:41:32.070Z,100220.59
2022-12-25T19:43:59.961Z,100222.81
2022-12-25T19:46:30.456Z,100217.19
2022-12-25T19:48:59.028Z,100221.09
2022-12-25T19:51:29.297Z,100226.97
2022-12-25T19:53:58.316Z,100216.88
2022-12-25T19:56:27.641Z,100215.59
2022-12-25T19:58:55.789Z,100222.31
2022-12-25T20:01:25.862Z,100216.84
2022-12-25T20:03:54.109Z,100219.34
2022-12-25T20:06:26.101Z,100225.22
2022-12-25T20:08:58.985Z,100224.25
2022-12-25T20:11:30.222Z,100225.75
2022-12-25T20:13:59.445Z,100228.13
2022-12-25T20:16:27.308Z,100228.81
2022-12-25T20:18:56.429Z,100232.19
2022-12-25T20:21:27.080Z,100234.69
2022-12-25T20:23:56.180Z,100236.25
2022-12-25T20:26:28.222Z,100235.13
2022-12-25T20:28:57.171Z,100240.28
2022-12-25T20:31:27.474Z,100243.34
2022-12-25T20:33:56.154Z,100238.88
2022-12-25T20:36:24.102Z,100245.56
2022-12-25T20:38:52.078Z,100240.25
2022-12-25T20:41:26.726Z,100231.13
2022-12-25T20:43:57.729Z,100242.59
2022-12-25T20:46:25.787Z,100246.94
2022-12-25T20:48:54.247Z,100246.66
2022-12-25T20:51:24.798Z,100247.50
2022-12-25T20:53:53.445Z,100252.66
2022-12-25T20:56:24.381Z,100249.56
2022-12-25T20:58:56.766Z,100245.22
2022-12-25T21:01:25.207Z,100246.06
2022-12-25T21:03:53.534Z,100260.19
2022-12-25T21:06:22.422Z,100276.69
2022-12-25T21:08:51.321Z,100259.75
2022-12-25T21:11:21.147Z,100255.28
2022-12-25T21:13:48.968Z,100252.19
2022-12-25T21:16:20.025Z,100253.13
2022-12-25T21:18:48.463Z,100262.34
2022-12-25T21:21:16.546Z,100266.16
2022-12-25T21:23:45.563Z,100264.34
2022-12-25T21:26:15.892Z,100273.97
2022-12-25T21:28:43.722Z,100273.69
2022-12-25T21:31:11.905Z,100271.88
2022-12-25T21:33:52.128Z,100264.72
2022-12-25T21:36:26.964Z,100254.09
2022-12-25T21:38:57.751Z,100252.94
2022-12-25T21:41:26.528Z,100266.25
2022-12-25T21:43:54.927Z,100241.19
2022-12-25T21:46:22.897Z,100241.84
2022-12-25T21:48:52.329Z,100243.69
2022-12-25T21:51:40.363Z,100237.22
2022-12-25T21:54:10.107Z,100246.41
2022-12-25T21:56:44.450Z,100249.56
2022-12-25T21:59:15.352Z,100261.72
2022-12-25T22:01:44.374Z,100274.47
2022-12-25T22:04:15.212Z,100272.34
2022-12-25T22:07:01.624Z,100264.38
2022-12-25T22:09:29.877Z,100259.03
2022-12-25T22:12:15.620Z,100257.38
2022-12-25T22:14:56.996Z,100269.53
2022-12-25T22:17:45.098Z,100280.19
2022-12-25T22:20:16.893Z,100272.03
2022-12-25T22:22:45.173Z,100269.25
2022-12-25T22:25:13.888Z,100274.69
2022-12-25T22:27:43.146Z,100285.34
2022-12-25T22:30:12.988Z,100279.28
2022-12-25T22:32:41.137Z,100297.69
2022-12-25T22:35:10.107Z,100297.69
2022-12-25T22:37:40.477Z,100283.53
2022-12-25T22:40:09.923Z,100296.69
2022-12-25T22:42:37.842Z,100303.69
2022-12-25T22:45:07.092Z,100310.00
2022-12-25T22:47:34.747Z,100305.19
2022-12-25T22:50:02.741Z,100305.50
2022-12-25T22:52:31.234Z,100311.66
2022-12-25T22:55:00.355Z,100316.00
2022-12-25T22:57:28.026Z,100305.19
2022-12-25T22:59:59.092Z,100307.56
2022-12-25T23:02:27.577Z,100309.69
2022-12-25T23:04:55.549Z,100315.16
2022-12-25T23:07:23.192Z,100313.34
2022-12-25T23:09:52.671Z,100304.53
2022-12-25T23:12:39.553Z,100323.16
2022-12-25T23:15:08.722Z,100314.03
2022-12-25T23:17:54.674Z,100307.19
2022-12-25T23:20:40.919Z,100311.66
2022-12-25T23:23:31.561Z,100311.66
2022-12-25T23:26:08.612Z,100301.03
2022-12-25T23:28:56.867Z,100296.69
2022-12-25T23:31:28.299Z,100305.66
2022-12-25T23:33:56.765Z,100303.84
2022-12-25T23:36:24.895Z,100304.53
2022-12-25T23:38:52.539Z,100314.34
2022-12-25T23:41:22.093Z,100312.50
2022-12-25T23:43:51.506Z,100311.50
2022-12-25T23:46:20.336Z,100309.84
2022-12-25T23:48:48.559Z,100308.03
2022-12-25T23:51:16.193Z,100313.34
2022-12-25T23:53:45.077Z,100313.34
2022-12-25T23:56:14.680Z,100316.16
2022-12-25T23:58:45.041Z,100311.66
